Wetterdaten: Dienstag, 30.12.2014
Datum Zeit Temp. A. Feuchte A. Luftdruck Regen Wind Richtung Richtung Sonnenschein ET UV Solar Taupunkt Windchill Windben Empfang
30.12.2014 00:00 -7,9 C 70 % 1035,1 hPa 0,0 l/m 0,0 km/h (0 Bft) S 180 0 min 0,000 mm 0,0 UV-I 0 W/m -12,4 C -7,9 C 0,0 km/h (0 Bft) 0,00 %
30.12.2014 01:00 -9,4 C 72 % 1035,1 hPa 0,0 l/m 0,0 km/h (0 Bft) S 180 0 min 0,000 mm 0,0 UV-I 0 W/m -13,5 C -9,4 C 0,0 km/h (0 Bft) 0,00 %
30.12.2014 02:00 -9,7 C 72 % 1035,9 hPa 0,0 l/m 0,0 km/h (0 Bft) S 180 0 min 0,000 mm 0,0 UV-I 0 W/m -13,8 C -9,7 C 0,0 km/h (0 Bft) 0,00 %
30.12.2014 03:00 -9,6 C 71 % 1036,2 hPa 0,0 l/m 0,0 km/h (0 Bft) S 180 0 min 0,000 mm 0,0 UV-I 0 W/m -13,8 C -9,6 C 0,0 km/h (0 Bft) 0,00 %
30.12.2014 04:00 -10,3 C 71 % 1036,3 hPa 0,0 l/m 0,0 km/h (0 Bft) S 180 0 min 0,000 mm 0,0 UV-I 0 W/m -14,5 C -10,3 C 0,0 km/h (0 Bft) 0,00 %
30.12.2014 05:00 -10,1 C 71 % 1036,3 hPa 0,0 l/m 0,0 km/h (0 Bft) S 180 0 min 0,000 mm 0,0 UV-I 0 W/m -14,3 C -10,1 C 0,0 km/h (0 Bft) 0,00 %
30.12.2014 06:00 -10,6 C 72 % 1036,1 hPa 0,0 l/m 0,0 km/h (0 Bft) S 180 0 min 0,000 mm 0,0 UV-I 0 W/m -14,6 C -10,6 C 0,0 km/h (0 Bft) 0,00 %
30.12.2014 07:00 -9,7 C 71 % 1035,9 hPa 0,0 l/m 0,0 km/h (0 Bft) S 180 0 min 0,000 mm 0,0 UV-I 0 W/m -13,9 C -9,7 C 0,0 km/h (0 Bft) 0,00 %
30.12.2014 08:00 -8,9 C 70 % 1035,7 hPa 0,0 l/m 0,0 km/h (0 Bft) S 180 0 min 0,000 mm 0,0 UV-I 1 W/m -13,3 C -8,9 C 0,0 km/h (0 Bft) 0,00 %
30.12.2014 09:00 -7,8 C 70 % 1035,5 hPa 0,0 l/m 0,0 km/h (0 Bft) S 180 0 min 0,000 mm 0,0 UV-I 25 W/m -12,3 C -7,8 C 0,0 km/h (0 Bft) 0,00 %
30.12.2014 10:00 -6,1 C 73 % 1035,2 hPa 0,0 l/m 0,0 km/h (0 Bft) S 180 0 min 0,000 mm 1,0 UV-I 85 W/m -10,1 C -6,1 C 0,0 km/h (0 Bft) 0,00 %
30.12.2014 11:00 -4,6 C 68 % 1034,6 hPa 0,0 l/m 0,0 km/h (0 Bft) S 180 0 min 0,000 mm 1,0 UV-I 115 W/m -9,6 C -4,6 C 0,0 km/h (0 Bft) 0,00 %
30.12.2014 12:00 -3,8 C 62 % 1033,8 hPa 0,0 l/m 0,0 km/h (0 Bft) S 180 0 min 0,000 mm 1,0 UV-I 127 W/m -10,0 C -3,8 C 0,0 km/h (0 Bft) 0,00 %
30.12.2014 13:00 -4,1 C 63 % 1033,1 hPa 0,0 l/m 0,0 km/h (0 Bft) S 180 0 min 0,000 mm 1,0 UV-I 125 W/m -10,1 C -4,1 C 0,0 km/h (0 Bft) 0,00 %
30.12.2014 14:00 -2,6 C 58 % 1032,5 hPa 0,0 l/m 0,0 km/h (0 Bft) S 180 0 min 0,000 mm 1,0 UV-I 98 W/m -9,7 C -2,6 C 0,0 km/h (0 Bft) 0,00 %
30.12.2014 15:00 -3,9 C 64 % 1032,7 hPa 0,0 l/m 0,0 km/h (0 Bft) S 180 0 min 0,000 mm 0,0 UV-I 40 W/m -9,7 C -3,9 C 0,0 km/h (0 Bft) 0,00 %
30.12.2014 16:00 -5,0 C 69 % 1032,5 hPa 0,0 l/m 0,0 km/h (0 Bft) S 180 0 min 0,000 mm 0,0 UV-I 1 W/m -9,8 C -5,0 C 0,0 km/h (0 Bft) 0,00 %
30.12.2014 17:00 -5,3 C 70 % 1033,0 hPa 0,0 l/m 0,0 km/h (0 Bft) S 180 0 min 0,000 mm 0,0 UV-I 0 W/m -9,9 C -5,3 C 0,0 km/h (0 Bft) 0,00 %
30.12.2014 18:00 -5,3 C 71 % 1033,3 hPa 0,0 l/m 0,0 km/h (0 Bft) S 180 0 min 0,000 mm 0,0 UV-I 0 W/m -9,7 C -5,3 C 0,0 km/h (0 Bft) 0,00 %
30.12.2014 19:00 -5,2 C 72 % 1033,0 hPa 0,0 l/m 0,0 km/h (0 Bft) S 180 0 min 0,000 mm 0,0 UV-I 0 W/m -9,4 C -5,2 C 0,0 km/h (0 Bft) 0,00 %
30.12.2014 20:00 -5,1 C 72 % 1032,9 hPa 0,0 l/m 0,0 km/h (0 Bft) S 180 0 min 0,000 mm 0,0 UV-I 0 W/m -9,3 C -5,1 C 0,0 km/h (0 Bft) 0,00 %
30.12.2014 21:00 -5,1 C 73 % 1033,3 hPa 0,0 l/m 0,0 km/h (0 Bft) S 180 0 min 0,000 mm 0,0 UV-I 0 W/m -9,2 C -5,1 C 0,0 km/h (0 Bft) 0,00 %
30.12.2014 22:00 -5,1 C 74 % 1033,3 hPa 0,0 l/m 0,0 km/h (0 Bft) S 180 0 min 0,000 mm 0,0 UV-I 0 W/m -9,0 C -5,1 C 0,0 km/h (0 Bft) 0,00 %
30.12.2014 23:00 -5,1 C 75 % 1033,3 hPa 0,0 l/m 0,0 km/h (0 Bft) S 180 0 min 0,000 mm 0,0 UV-I 0 W/m -8,8 C -5,1 C 0,0 km/h (0 Bft) 0,00 %
_ Min-Zeit 06:00 14:00 14:00 - 00:00 - - - - - - 06:00 06:00 00:00 00:00
Minimum _ -10,6 C 58 % 1032,5 hPa - 0,0 km/h (0 Bft) - - - - - - -14,6 C -10,6 C 0,0 km/h (0 Bft) 0,00 %
_ Max-Zeit 14:00 23:00 04:00 00:00 00:00 - - 00:00 00:00 10:00 12:00 23:00 14:00 00:00 00:00
Maximum _ -2,6 C 75 % 1036,3 hPa 0,0 l/m 0,0 km/h
S (0 Bft)
- - 0 min 0,000 mm 1,0 UV-I 127 W/m -8,8 C -2,6 C 0,0 km/h
S (0 Bft)
0,00 %
Durchschnitt _ -6,6 C 70 % 1034,3 hPa #0,0 l/m 0,0 km/h (0 Bft) - - - #0 min. #0,000 mm 1,0 UV-I 69 W/m -11,2 C -6,6 C 0,0 km/h (0 Bft) 0,00 %